MDT,Max TemperatureF,Mean TemperatureF,Min TemperatureF,Max Dew PointF,MeanDew PointF,Min DewpointF,Max Humidity, Mean Humidity, Min Humidity, Max Sea Level PressureIn, Mean Sea Level PressureIn, Min Sea Level PressureIn, Max VisibilityMiles, Mean VisibilityMiles, Min VisibilityMiles, Max Wind SpeedMPH, Mean Wind SpeedMPH, Max Gust SpeedMPH,PrecipitationIn, CloudCover, Events, WindDirDegrees
2012-3-1,42,34,25,20,9,0,75,47,18,29.96,29.78,29.68,10,10,10,26,16,35,T,3,,283
2012-3-2,38,30,21,19,12,5,75,51,27,30.12,30.05,29.95,10,10,10,29,15,36,T,6,,296
2012-3-3,54,43,32,27,21,13,54,42,29,30.04,29.93,29.83,10,10,10,38,22,49,0.00,4,,272
2012-3-4,62,49,35,30,23,16,82,50,17,30.12,29.98,29.88,10,10,10,28,13,33,0.00,2,,287
2012-3-5,64,53,41,22,19,12,45,30,14,29.86,29.67,29.42,10,10,10,25,14,33,0.00,1,,228
2012-3-6,52,36,20,30,24,12,92,62,32,30.05,29.68,29.32,10,6,0,25,11,30,0.10,6,Fog-Snow,345
2012-3-7,40,28,15,16,13,11,88,59,30,30.36,30.14,29.93,10,10,10,26,12,32,0.00,1,,266
2012-3-8,52,38,23,17,15,12,60,42,24,30.43,30.38,30.30,10,10,10,25,17,35,0.00,0,,235
2012-3-9,68,55,41,17,13,8,36,23,10,30.31,30.10,29.91,10,10,10,30,21,38,0.00,1,,240
2012-3-10,70,54,38,17,14,8,40,25,9,29.90,29.76,29.64,10,10,10,22,13,28,0.00,0,,239
2012-3-11,68,51,34,27,17,11,40,26,11,29.68,29.56,29.41,10,10,10,30,13,37,0.00,0,,226
2012-3-12,56,47,37,31,26,20,70,49,27,29.81,29.70,29.54,10,10,10,20,7,23,0.00,2,,221
2012-3-13,67,51,35,27,22,19,64,40,16,29.74,29.53,29.39,10,10,10,36,13,47,0.00,2,,239
2012-3-14,57,46,34,23,16,7,59,40,20,29.95,29.84,29.75,10,10,10,23,9,29,0.00,4,,64
2012-3-15,70,51,32,29,24,16,61,41,20,29.99,29.86,29.71,10,10,10,29,11,39,0.00,2,,221
2012-3-16,70,57,44,32,30,26,58,40,21,29.70,29.58,29.48,10,10,10,39,11,47,0.00,3,,259
2012-3-17,73,58,43,35,30,21,67,42,16,29.64,29.43,29.25,10,10,10,29,12,38,0.00,3,,124
2012-3-18,55,47,38,36,34,31,73,60,46,29.41,29.31,29.21,10,10,10,23,13,29,0.01,2,Rain,34
2012-3-19,41,37,32,36,29,21,100,80,59,29.78,29.43,29.25,10,6,0,28,17,39,0.59,7,Fog-Rain-Snow,289
2012-3-20,45,36,27,24,20,15,75,56,37,29.89,29.83,29.75,10,10,10,30,12,37,0.00,2,,233
2012-3-21,64,50,35,28,26,23,64,45,25,29.93,29.88,29.83,10,10,10,30,17,37,0.00,1,,226
2012-3-22,73,56,38,30,26,21,55,35,15,29.91,29.83,29.74,10,10,10,17,9,22,0.00,1,,221
2012-3-23,60,48,36,35,32,29,76,57,37,30.11,29.88,29.81,10,10,10,21,8,29,0.00,2,,12
2012-3-24,45,39,32,34,32,28,89,77,65,30.25,30.16,30.08,10,10,10,17,10,23,0.00,4,,40
2012-3-25,58,45,31,37,32,29,92,68,43,30.09,29.94,29.71,10,10,10,15,8,20,0.00,1,,357
2012-3-26,65,52,39,41,37,33,82,61,39,29.71,29.55,29.33,10,10,10,46,12,54,T,3,Rain,274
2012-3-27,62,53,44,35,24,17,62,41,19,29.91,29.85,29.69,10,10,10,33,15,39,0.00,2,,273
2012-3-28,71,53,35,33,25,22,64,41,18,29.87,29.78,29.65,10,10,10,26,10,36,0.00,2,,247
2012-3-29,60,49,37,30,25,17,70,46,21,29.91,29.81,29.70,10,10,10,28,9,35,0.00,2,,265
2012-3-30,72,56,40,31,28,24,53,37,20,29.69,29.62,29.54,10,10,10,39,15,47,0.00,2,,241
2012-3-31,80,63,46,38,35,31,61,39,17,29.66,29.50,29.29,10,10,10,21,8,35,0.00,1,,281